Time;durP1;ratioP1;P1;durP2;ratioP2;P2;SDS_P1;SDS_P2;PMS_P1;PMS_P2;Temp;Humidity;BMP_temperature;BMP_pressure;BME280_temperature;BME280_humidity;BME280_pressure;Samples;Min_cycle;Max_cycle;Signal;HPM_P1;HPM_P2
2021/01/20 00:01:20;;;;;;;2.65;1.85;;;19.80;40.50;;;;;;4817058;29;20062;-72
2021/01/20 00:03:46;;;;;;;3.33;1.00;;;19.80;40.40;;;;;;4809336;29;20030;-73
2021/01/20 00:06:11;;;;;;;0.28;0.28;;;19.80;40.40;;;;;;4836854;29;20033;-72
2021/01/20 00:08:38;;;;;;;0.73;0.52;;;19.80;40.60;;;;;;4835802;29;20033;-72
2021/01/20 00:11:03;;;;;;;1.65;0.80;;;19.70;40.60;;;;;;4816274;29;20527;-72
2021/01/20 00:13:29;;;;;;;3.97;1.85;;;19.70;40.40;;;;;;4802870;29;20082;-72
2021/01/20 00:15:55;;;;;;;0.70;0.70;;;19.70;40.50;;;;;;4816309;29;20392;-72
2021/01/20 00:18:20;;;;;;;0.95;0.47;;;19.70;40.60;;;;;;4817028;29;20098;-73
2021/01/20 00:20:46;;;;;;;1.55;0.82;;;19.70;40.60;;;;;;4818131;29;20537;-72
2021/01/20 00:23:12;;;;;;;0.75;0.65;;;19.70;40.60;;;;;;4821283;29;20033;-72
2021/01/20 00:25:37;;;;;;;1.13;0.93;;;19.70;40.60;;;;;;4816317;29;20042;-72
2021/01/20 00:28:03;;;;;;;3.50;2.10;;;19.70;40.60;;;;;;4832733;29;20073;-80
2021/01/20 00:30:47;;;;;;;3.70;1.83;;;19.60;40.50;;;;;;4829239;29;20034;-80
2021/01/20 00:33:13;;;;;;;4.53;0.73;;;19.60;40.50;;;;;;4831807;29;20045;-79
2021/01/20 00:35:38;;;;;;;6.90;1.35;;;19.60;40.50;;;;;;4823014;29;20517;-80
2021/01/20 00:38:04;;;;;;;1.13;0.85;;;19.60;40.50;;;;;;4833948;29;20038;-79
2021/01/20 00:40:29;;;;;;;3.17;0.43;;;19.60;40.50;;;;;;4816011;29;20117;-79
2021/01/20 00:42:55;;;;;;;0.80;0.55;;;19.60;41.10;;;;;;4825983;29;20042;-79
2021/01/20 00:45:20;;;;;;;1.33;0.82;;;19.60;40.50;;;;;;4826092;29;20440;-80
2021/01/20 00:47:46;;;;;;;2.75;1.77;;;19.60;40.50;;;;;;4820899;29;20117;-80
2021/01/20 00:50:12;;;;;;;1.30;0.60;;;19.60;40.50;;;;;;4830832;29;20046;-80
2021/01/20 00:52:37;;;;;;;2.75;1.20;;;19.60;40.50;;;;;;4832848;29;20077;-80
2021/01/20 00:55:03;;;;;;;0.52;0.40;;;19.60;40.50;;;;;;4834163;29;20030;-80
2021/01/20 00:57:29;;;;;;;2.50;1.08;;;19.60;40.50;;;;;;4811740;29;20476;-80
2021/01/20 01:00:01;;;;;;;0.77;0.57;;;19.60;40.50;;;;;;4810750;29;20095;-79
2021/01/20 01:02:26;;;;;;;1.25;0.73;;;19.50;40.50;;;;;;4816701;29;20065;-72
2021/01/20 01:04:52;;;;;;;4.30;1.48;;;19.60;40.30;;;;;;4818071;29;20066;-73
2021/01/20 01:07:17;;;;;;;2.22;1.25;;;19.60;40.40;;;;;;4813604;29;20034;-72
2021/01/20 01:09:43;;;;;;;3.63;1.50;;;19.60;41.00;;;;;;4808902;29;20037;-73
2021/01/20 01:12:09;;;;;;;4.38;1.48;;;19.50;40.40;;;;;;4807174;29;20464;-79
2021/01/20 01:14:35;;;;;;;6.18;0.90;;;19.50;40.50;;;;;;4835897;29;20428;-80
2021/01/20 01:17:00;;;;;;;1.20;0.73;;;19.50;40.50;;;;;;4837875;29;20034;-79
2021/01/20 01:19:26;;;;;;;1.98;0.70;;;19.50;40.50;;;;;;4811836;29;20022;-79
2021/01/20 01:21:51;;;;;;;2.30;0.90;;;19.50;40.50;;;;;;4832383;29;20057;-79
2021/01/20 01:24:17;;;;;;;1.33;0.70;;;19.50;40.50;;;;;;4798755;29;20039;-79
2021/01/20 01:26:42;;;;;;;1.33;1.00;;;19.50;40.50;;;;;;4833052;29;20053;-80
2021/01/20 01:29:08;;;;;;;0.85;0.52;;;19.50;40.50;;;;;;4821584;29;20053;-80
2021/01/20 01:31:33;;;;;;;1.20;0.40;;;19.50;40.50;;;;;;4837288;29;20074;-80
2021/01/20 01:33:59;;;;;;;4.15;2.08;;;19.50;40.50;;;;;;4817452;29;20030;-80
2021/01/20 01:36:24;;;;;;;4.22;2.10;;;19.50;40.50;;;;;;4827242;29;20109;-80
2021/01/20 01:38:50;;;;;;;2.25;1.25;;;19.50;40.50;;;;;;4829795;29;20034;-79
2021/01/20 01:41:16;;;;;;;3.33;1.27;;;19.50;40.50;;;;;;4809333;29;20042;-79
2021/01/20 01:43:41;;;;;;;2.92;1.85;;;19.50;40.50;;;;;;4827886;29;20114;-80
2021/01/20 01:46:07;;;;;;;1.95;1.70;;;19.50;40.60;;;;;;4796100;29;20395;-80
2021/01/20 01:48:32;;;;;;;3.00;2.17;;;19.40;40.70;;;;;;4839743;29;20061;-80
2021/01/20 01:51:01;;;;;;;1.67;1.17;;;19.50;40.70;;;;;;4826732;29;20090;-80
2021/01/20 01:53:26;;;;;;;3.60;2.15;;;19.50;40.70;;;;;;4793183;29;20176;-80
2021/01/20 01:55:52;;;;;;;2.90;1.65;;;19.50;40.80;;;;;;4809884;29;20117;-80
2021/01/20 01:58:21;;;;;;;5.15;1.90;;;19.50;40.90;;;;;;4829530;29;20407;-80
2021/01/20 02:00:46;;;;;;;1.60;1.00;;;19.50;40.80;;;;;;4813071;29;20046;-80
2021/01/20 02:03:12;;;;;;;0.75;0.52;;;19.50;40.50;;;;;;4813917;29;20457;-80
2021/01/20 02:05:41;;;;;;;3.63;1.63;;;19.40;40.40;;;;;;4829774;29;20038;-80
2021/01/20 02:08:06;;;;;;;3.95;1.58;;;19.40;40.40;;;;;;4813575;29;20037;-80
2021/01/20 02:10:32;;;;;;;1.25;0.55;;;19.40;40.70;;;;;;4803884;29;20022;-80
2021/01/20 02:13:14;;;;;;;4.15;1.75;;;19.40;40.30;;;;;;4803553;29;20035;-81
2021/01/20 02:15:43;;;;;;;2.05;1.23;;;19.40;40.30;;;;;;4814652;29;20475;-72
2021/01/20 02:18:19;;;;;;;4.70;0.63;;;19.30;40.80;;;;;;4802217;29;20030;-73
2021/01/20 02:21:09;;;;;;;0.85;0.60;;;19.30;40.70;;;;;;4804135;29;20105;-73
2021/01/20 02:23:39;;;;;;;0.50;0.50;;;19.30;40.70;;;;;;4833643;29;20060;-72
2021/01/20 02:26:16;;;;;;;1.35;0.55;;;19.30;40.40;;;;;;4801600;29;20414;-72
2021/01/20 02:28:50;;;;;;;1.20;0.88;;;19.30;40.40;;;;;;4818845;29;20029;-73
2021/01/20 02:31:15;;;;;;;1.83;1.10;;;19.30;40.60;;;;;;4801741;29;20071;-72
2021/01/20 02:33:46;;;;;;;1.55;0.65;;;19.30;40.70;;;;;;4811716;29;20060;-79
2021/01/20 02:36:11;;;;;;;1.90;1.58;;;19.30;40.70;;;;;;4818292;29;20038;-80
2021/01/20 02:38:37;;;;;;;0.17;0.10;;;19.30;40.70;;;;;;4809070;29;20543;-80
2021/01/20 02:41:02;;;;;;;0.80;0.65;;;19.30;40.80;;;;;;4787443;29;20518;-80
2021/01/20 02:43:28;;;;;;;0.73;0.73;;;19.30;40.80;;;;;;4827111;29;20514;-80
2021/01/20 02:45:57;;;;;;;1.25;1.15;;;19.30;40.70;;;;;;4838568;29;20399;-80
2021/01/20 02:48:22;;;;;;;2.83;1.95;;;19.30;40.90;;;;;;4830929;29;20030;-80
2021/01/20 02:50:48;;;;;;;2.50;2.08;;;19.30;40.90;;;;;;4811775;29;20043;-79
2021/01/20 02:53:15;;;;;;;3.97;1.73;;;19.30;40.90;;;;;;4821742;29;20049;-72
2021/01/20 02:55:53;;;;;;;0.65;0.38;;;19.30;40.90;;;;;;4793842;29;20108;-72
2021/01/20 02:58:24;;;;;;;1.35;0.52;;;19.40;40.90;;;;;;4811412;29;20034;-73
2021/01/20 03:00:50;;;;;;;0.57;0.28;;;19.40;40.90;;;;;;4815038;29;20084;-72
2021/01/20 03:03:16;;;;;;;1.10;0.68;;;19.40;40.90;;;;;;4819789;29;20027;-72
2021/01/20 03:06:00;;;;;;;1.48;0.90;;;19.30;40.70;;;;;;4804944;29;20045;-72
2021/01/20 03:08:26;;;;;;;1.42;0.88;;;19.30;40.80;;;;;;4810014;29;20037;-72
2021/01/20 03:10:52;;;;;;;0.68;0.68;;;19.30;40.60;;;;;;4789401;29;20042;-72
2021/01/20 03:13:18;;;;;;;0.90;0.70;;;19.30;40.60;;;;;;4803488;29;20113;-73
2021/01/20 03:15:44;;;;;;;2.47;0.77;;;19.20;40.60;;;;;;4800979;29;20105;-72
2021/01/20 03:18:09;;;;;;;0.93;0.60;;;19.30;40.40;;;;;;4817894;29;20503;-72
2021/01/20 03:20:35;;;;;;;2.13;0.90;;;19.20;40.30;;;;;;4807977;29;20038;-73
2021/01/20 03:23:01;;;;;;;2.55;1.00;;;19.20;40.30;;;;;;4819340;29;20046;-72
2021/01/20 03:25:27;;;;;;;1.75;0.90;;;19.20;40.30;;;;;;4796892;29;20062;-72
2021/01/20 03:27:53;;;;;;;0.85;0.55;;;19.20;40.30;;;;;;4827889;29;20028;-72
2021/01/20 03:30:19;;;;;;;2.25;1.23;;;19.10;40.30;;;;;;4811312;29;20496;-72
2021/01/20 03:32:45;;;;;;;0.93;0.65;;;19.10;40.50;;;;;;4815869;29;20050;-72
2021/01/20 03:35:11;;;;;;;2.05;0.70;;;19.10;40.40;;;;;;4819444;29;20042;-73
2021/01/20 03:37:36;;;;;;;1.67;1.35;;;19.10;40.30;;;;;;4818085;29;20046;-72
2021/01/20 03:40:04;;;;;;;2.13;0.60;;;19.10;40.40;;;;;;4798981;29;20042;-72
2021/01/20 03:42:29;;;;;;;6.28;1.20;;;19.10;40.50;;;;;;4810409;29;20035;-73
2021/01/20 03:44:55;;;;;;;1.90;0.80;;;19.10;40.30;;;;;;4835958;29;20095;-72
2021/01/20 03:47:20;;;;;;;2.95;1.40;;;19.10;40.70;;;;;;4832152;29;20061;-72
2021/01/20 03:49:46;;;;;;;1.30;0.82;;;19.10;40.40;;;;;;4831645;29;20121;-72
2021/01/20 03:52:11;;;;;;;0.22;0.22;;;19.10;40.50;;;;;;4838128;29;20443;-73
2021/01/20 03:54:37;;;;;;;0.17;0.17;;;19.10;40.60;;;;;;4841649;29;20594;-72
2021/01/20 03:57:03;;;;;;;2.42;0.68;;;19.10;40.70;;;;;;4839665;29;20030;-72
2021/01/20 03:59:30;;;;;;;0.93;0.55;;;19.10;40.60;;;;;;4834280;29;20030;-72
2021/01/20 04:01:56;;;;;;;2.05;1.20;;;19.10;40.70;;;;;;4831049;29;20078;-72
2021/01/20 04:04:22;;;;;;;0.40;0.40;;;19.10;40.60;;;;;;4826912;29;20022;-73
2021/01/20 04:06:48;;;;;;;1.67;0.52;;;19.10;40.80;;;;;;4834326;29;20518;-72
2021/01/20 04:09:13;;;;;;;3.10;1.60;;;19.10;40.80;;;;;;4815832;29;20451;-72
2021/01/20 04:11:39;;;;;;;1.30;0.93;;;19.10;40.60;;;;;;4811606;29;20057;-72
2021/01/20 04:14:04;;;;;;;1.35;1.20;;;19.10;40.60;;;;;;4824033;29;20062;-72
2021/01/20 04:16:30;;;;;;;1.05;0.60;;;19.10;40.60;;;;;;4802298;29;20454;-80
2021/01/20 04:18:56;;;;;;;2.17;1.23;;;19.10;40.50;;;;;;4825489;29;20105;-80
2021/01/20 04:21:21;;;;;;;1.23;0.77;;;19.20;40.70;;;;;;4835120;29;20038;-80
2021/01/20 04:23:47;;;;;;;2.33;0.90;;;19.10;40.80;;;;;;4832112;29;20022;-80
2021/01/20 04:26:12;;;;;;;1.00;0.63;;;19.10;40.80;;;;;;4831281;29;20038;-80
2021/01/20 04:28:38;;;;;;;0.80;0.65;;;19.10;40.80;;;;;;4830677;29;20032;-81
2021/01/20 04:31:04;;;;;;;2.47;0.80;;;19.10;40.70;;;;;;4814509;29;20046;-80
2021/01/20 04:33:29;;;;;;;1.27;0.93;;;19.10;40.50;;;;;;4809834;29;20075;-80
2021/01/20 04:35:55;;;;;;;1.63;1.05;;;19.10;40.40;;;;;;4827717;29;20039;-79
2021/01/20 04:38:21;;;;;;;0.63;0.57;;;19.10;40.70;;;;;;4815591;29;20049;-79
2021/01/20 04:40:46;;;;;;;0.40;0.40;;;19.10;40.80;;;;;;4833687;29;20117;-80
2021/01/20 04:43:12;;;;;;;2.00;1.05;;;19.10;40.90;;;;;;4825511;29;20030;-80
2021/01/20 04:45:38;;;;;;;1.75;0.52;;;19.10;40.80;;;;;;4809094;29;20129;-80
2021/01/20 04:48:41;;;;;;;0.95;0.73;;;19.10;40.70;;;;;;4783281;29;20022;-79
2021/01/20 04:51:07;;;;;;;1.38;0.60;;;19.10;40.60;;;;;;4804959;29;20042;-79
2021/01/20 04:53:33;;;;;;;1.98;1.02;;;19.10;40.60;;;;;;4830500;29;20031;-80
2021/01/20 04:56:06;;;;;;;1.38;0.65;;;19.10;40.80;;;;;;4825248;29;20034;-80
2021/01/20 04:58:31;;;;;;;0.47;0.47;;;19.10;40.90;;;;;;4802944;29;20042;-79
2021/01/20 05:00:58;;;;;;;3.13;0.52;;;19.10;40.80;;;;;;4793138;29;20046;-80
2021/01/20 05:03:23;;;;;;;1.90;0.68;;;19.10;40.80;;;;;;4837130;29;20018;-80
2021/01/20 05:05:54;;;;;;;3.33;0.90;;;19.00;40.80;;;;;;4792546;29;20563;-81
2021/01/20 05:08:23;;;;;;;0.93;0.60;;;19.10;41.00;;;;;;4818352;29;20029;-80
2021/01/20 05:10:48;;;;;;;1.83;0.90;;;19.10;40.90;;;;;;4837331;29;20502;-81
2021/01/20 05:13:30;;;;;;;1.85;1.00;;;19.20;40.90;;;;;;4830020;29;20030;-81
2021/01/20 05:15:56;;;;;;;1.55;0.88;;;19.30;40.80;;;;;;4794204;29;20122;-80
2021/01/20 05:18:22;;;;;;;0.98;0.47;;;19.30;40.70;;;;;;4813735;29;20079;-80
2021/01/20 05:20:47;;;;;;;1.58;0.93;;;19.40;40.60;;;;;;4807242;29;20038;-80
2021/01/20 05:23:13;;;;;;;1.73;0.90;;;19.50;40.50;;;;;;4832547;29;20038;-80
2021/01/20 05:25:40;;;;;;;1.38;0.65;;;19.50;40.50;;;;;;4798643;29;20491;-81
2021/01/20 05:28:16;;;;;;;1.35;0.88;;;19.60;40.50;;;;;;4789100;29;20121;-80
2021/01/20 05:30:48;;;;;;;1.85;1.00;;;19.70;40.40;;;;;;4833035;29;20109;-80
2021/01/20 05:33:15;;;;;;;3.05;0.82;;;19.80;40.40;;;;;;4818019;29;20029;-79
2021/01/20 05:35:42;;;;;;;2.97;0.80;;;19.90;40.20;;;;;;4811501;29;20105;-79
2021/01/20 05:38:07;;;;;;;2.45;1.13;;;19.90;40.10;;;;;;4816012;29;20038;-79
2021/01/20 05:40:34;;;;;;;0.95;0.82;;;19.90;40.10;;;;;;4813488;29;20035;-80
2021/01/20 05:43:00;;;;;;;1.23;0.75;;;20.00;40.10;;;;;;4800912;29;20039;-79
2021/01/20 05:45:25;;;;;;;1.48;0.70;;;20.00;40.00;;;;;;4822009;29;20551;-81
2021/01/20 05:48:06;;;;;;;3.08;0.80;;;20.00;40.00;;;;;;4828000;29;20022;-80
2021/01/20 05:50:33;;;;;;;2.38;0.82;;;20.00;40.00;;;;;;4835932;29;20030;-80
2021/01/20 05:53:09;;;;;;;2.13;0.80;;;20.10;40.00;;;;;;4793639;29;20038;-81
2021/01/20 05:55:35;;;;;;;2.00;0.52;;;20.10;39.90;;;;;;4780486;29;20074;-79
2021/01/20 05:58:01;;;;;;;0.50;0.40;;;20.10;39.80;;;;;;4797343;29;20073;-81
2021/01/20 06:01:17;;;;;;;1.75;0.63;;;20.10;39.90;;;;;;4792656;29;20057;-80
2021/01/20 06:03:43;;;;;;;1.25;0.75;;;20.20;39.90;;;;;;4824573;29;20034;-80
2021/01/20 06:06:08;;;;;;;2.60;0.93;;;20.20;39.90;;;;;;4811691;29;20042;-81
2021/01/20 06:08:34;;;;;;;2.95;0.60;;;20.20;39.70;;;;;;4796807;29;20038;-81
2021/01/20 06:11:09;;;;;;;2.17;0.90;;;20.20;39.80;;;;;;4828382;29;20047;-80
2021/01/20 06:13:35;;;;;;;0.90;0.70;;;20.20;39.80;;;;;;4809809;29;20054;-81
2021/01/20 06:16:17;;;;;;;1.33;0.70;;;20.30;40.40;;;;;;4797061;29;20043;-81
2021/01/20 06:18:48;;;;;;;1.08;0.60;;;20.30;39.80;;;;;;4824387;29;20019;-81
2021/01/20 06:21:15;;;;;;;1.85;0.88;;;20.30;39.80;;;;;;4828401;29;20507;-79
2021/01/20 06:23:40;;;;;;;2.25;0.50;;;20.30;40.40;;;;;;4840959;29;20106;-80
2021/01/20 06:27:00;;;;;;;2.22;0.70;;;20.30;39.70;;;;;;4798211;29;20543;-81
2021/01/20 06:29:28;;;;;;;0.80;0.60;;;20.30;39.80;;;;;;4753936;30;20416;-81
2021/01/20 06:31:53;;;;;;;1.48;0.90;;;20.30;39.80;;;;;;4756640;30;20044;-81
2021/01/20 06:34:19;;;;;;;1.45;0.55;;;20.30;39.80;;;;;;4742918;30;20040;-81
2021/01/20 06:36:45;;;;;;;1.45;0.80;;;20.30;39.80;;;;;;4721762;30;20047;-81
2021/01/20 06:39:29;;;;;;;1.55;0.70;;;20.30;39.80;;;;;;4753288;30;20044;-81
2021/01/20 06:42:01;;;;;;;1.88;0.90;;;20.30;39.90;;;;;;4753137;30;20040;-81
2021/01/20 06:44:27;;;;;;;2.17;0.70;;;20.30;39.90;;;;;;4724013;30;20033;-80
2021/01/20 06:46:55;;;;;;;0.80;0.50;;;20.30;39.80;;;;;;4753571;30;20039;-81
2021/01/20 06:49:21;;;;;;;0.50;0.50;;;20.40;39.90;;;;;;4747446;30;20045;-81
2021/01/20 06:52:11;;;;;;;0.93;0.65;;;20.30;39.90;;;;;;4743001;30;20044;-81
2021/01/20 06:54:44;;;;;;;0.70;0.50;;;20.40;39.90;;;;;;4751190;30;20065;-80
2021/01/20 06:57:35;;;;;;;1.60;0.55;;;20.40;39.80;;;;;;4738662;30;20078;-80
2021/01/20 07:00:09;;;;;;;3.20;0.68;;;20.40;39.80;;;;;;4739445;30;20036;-80
2021/01/20 07:02:56;;;;;;;0.77;0.50;;;20.40;39.90;;;;;;4765798;29;20054;-81
2021/01/20 07:05:45;;;;;;;0.45;0.40;;;20.40;39.90;;;;;;4797821;29;20030;-79
2021/01/20 07:08:11;;;;;;;0.80;0.50;;;20.40;39.80;;;;;;4815544;29;20121;-79
2021/01/20 07:10:58;;;;;;;1.85;0.43;;;20.40;39.90;;;;;;4829082;29;21771;-79
2021/01/20 07:13:33;;;;;;;1.20;0.63;;;20.40;39.90;;;;;;4824065;29;20045;-79
2021/01/20 07:15:59;;;;;;;1.02;0.63;;;20.40;39.80;;;;;;4808335;29;20530;-80
2021/01/20 07:18:25;;;;;;;0.82;0.50;;;20.50;39.80;;;;;;4827586;29;20042;-80
2021/01/20 07:20:51;;;;;;;1.88;0.60;;;20.40;39.80;;;;;;4799396;29;20041;-80
2021/01/20 07:23:17;;;;;;;0.50;0.30;;;20.40;39.80;;;;;;4811102;29;20039;-80
2021/01/20 07:25:45;;;;;;;0.40;0.40;;;20.40;39.80;;;;;;4832523;29;20032;-80
2021/01/20 07:28:11;;;;;;;0.60;0.50;;;20.40;39.80;;;;;;4812240;29;20034;-81
2021/01/20 07:30:36;;;;;;;0.50;0.50;;;20.40;39.80;;;;;;4823791;29;20396;-80
2021/01/20 07:33:14;;;;;;;0.77;0.50;;;20.40;39.70;;;;;;4830690;29;20189;-72
2021/01/20 07:35:39;;;;;;;1.08;0.63;;;20.40;39.70;;;;;;4804521;29;20514;-72
2021/01/20 07:38:05;;;;;;;0.75;0.57;;;20.40;39.70;;;;;;4796969;29;20030;-71
2021/01/20 07:40:32;;;;;;;1.65;0.60;;;20.40;39.80;;;;;;4820592;29;20054;-79
2021/01/20 07:42:58;;;;;;;0.55;0.50;;;20.40;39.70;;;;;;4819689;29;20032;-72
2021/01/20 07:45:31;;;;;;;2.40;0.60;;;20.40;39.70;;;;;;4816653;29;20030;-72
2021/01/20 07:47:56;;;;;;;0.82;0.40;;;20.40;39.70;;;;;;4788778;29;20042;-72
2021/01/20 07:50:35;;;;;;;2.47;0.90;;;20.50;39.70;;;;;;4809352;29;20045;-72
2021/01/20 07:53:01;;;;;;;1.38;0.75;;;20.50;39.70;;;;;;4820237;29;20038;-72
2021/01/20 07:55:26;;;;;;;2.20;0.82;;;20.50;39.50;;;;;;4837019;29;20030;-72
2021/01/20 07:57:56;;;;;;;0.60;0.60;;;20.40;39.40;;;;;;4829555;29;20030;-72
2021/01/20 08:00:22;;;;;;;1.08;0.70;;;20.40;39.20;;;;;;4826975;29;20109;-72
2021/01/20 08:02:47;;;;;;;0.60;0.57;;;20.40;39.10;;;;;;4825518;29;20120;-72
2021/01/20 08:05:13;;;;;;;1.10;0.60;;;20.40;39.10;;;;;;4814885;29;20030;-72
2021/01/20 08:07:38;;;;;;;1.55;0.45;;;20.40;39.10;;;;;;4822086;29;20093;-72
2021/01/20 08:10:05;;;;;;;0.55;0.28;;;20.40;39.10;;;;;;4819465;29;20022;-72
2021/01/20 08:12:31;;;;;;;2.35;0.73;;;20.40;39.10;;;;;;4812128;29;20082;-72
2021/01/20 08:15:03;;;;;;;0.77;0.50;;;20.40;38.90;;;;;;4796225;29;20109;-72
2021/01/20 08:17:38;;;;;;;0.75;0.50;;;20.40;38.70;;;;;;4799607;29;20034;-72
2021/01/20 08:20:12;;;;;;;2.77;0.87;;;20.40;38.80;;;;;;4793741;29;20129;-72
2021/01/20 08:22:39;;;;;;;1.00;0.70;;;20.40;38.90;;;;;;4802753;29;20448;-72
2021/01/20 08:25:07;;;;;;;1.08;0.63;;;20.40;38.80;;;;;;4804372;29;20510;-72
2021/01/20 08:27:33;;;;;;;1.65;0.80;;;20.50;38.70;;;;;;4815666;29;20022;-73
2021/01/20 08:29:59;;;;;;;1.17;0.60;;;20.50;38.20;;;;;;4818553;29;20117;-72
2021/01/20 08:32:25;;;;;;;3.50;0.77;;;20.40;38.10;;;;;;4830763;29;20106;-74
2021/01/20 08:34:51;;;;;;;1.23;0.50;;;20.40;37.80;;;;;;4831051;29;20113;-74
2021/01/20 08:37:36;;;;;;;1.23;0.73;;;20.40;38.20;;;;;;4827896;29;20085;-74
2021/01/20 08:40:05;;;;;;;0.50;0.40;;;20.30;37.50;;;;;;4796884;29;20091;-74
2021/01/20 08:42:34;;;;;;;3.10;0.88;;;20.30;37.60;;;;;;4815964;29;20121;-74
2021/01/20 08:45:10;;;;;;;0.90;0.60;;;20.30;37.60;;;;;;4831191;29;20387;-75
2021/01/20 08:47:55;;;;;;;1.60;0.85;;;20.20;37.40;;;;;;4831818;29;20499;-74
2021/01/20 08:50:29;;;;;;;1.50;0.70;;;20.20;36.80;;;;;;4823814;29;20099;-74
2021/01/20 08:53:37;;;;;;;0.82;0.73;;;20.10;36.90;;;;;;4832086;29;20067;-74
2021/01/20 08:56:03;;;;;;;1.02;0.65;;;20.10;36.80;;;;;;4822798;29;20049;-75
2021/01/20 08:58:32;;;;;;;1.30;0.70;;;20.00;37.20;;;;;;4811561;29;20036;-75
2021/01/20 09:01:04;;;;;;;0.60;0.47;;;20.00;37.40;;;;;;4803643;29;20042;-74
2021/01/20 09:03:31;;;;;;;1.02;0.85;;;20.00;37.10;;;;;;4806315;29;20106;-74
2021/01/20 09:05:58;;;;;;;2.17;0.60;;;20.00;37.10;;;;;;4811462;29;20100;-74
2021/01/20 09:08:28;;;;;;;1.92;0.68;;;20.00;37.20;;;;;;4797741;29;20114;-74
2021/01/20 09:10:54;;;;;;;1.13;0.90;;;20.00;37.20;;;;;;4796126;29;20411;-75
2021/01/20 09:13:20;;;;;;;0.82;0.73;;;20.10;37.10;;;;;;4808441;29;20042;-74
2021/01/20 09:15:50;;;;;;;0.55;0.50;;;20.10;36.50;;;;;;4828210;29;20495;-74
2021/01/20 09:18:19;;;;;;;4.00;0.50;;;20.00;36.50;;;;;;4805797;29;20053;-75
2021/01/20 09:20:47;;;;;;;1.52;0.57;;;20.00;36.90;;;;;;4779266;29;20525;-75
2021/01/20 09:23:13;;;;;;;0.68;0.40;;;20.00;37.00;;;;;;4828635;29;20038;-75
2021/01/20 09:25:45;;;;;;;1.05;0.50;;;20.10;37.00;;;;;;4817953;29;20046;-74
2021/01/20 09:28:10;;;;;;;1.20;0.50;;;20.10;37.00;;;;;;4798841;29;20035;-74
2021/01/20 09:30:36;;;;;;;0.75;0.50;;;20.10;37.00;;;;;;4825263;29;20096;-74
2021/01/20 09:33:02;;;;;;;0.43;0.40;;;20.20;36.90;;;;;;4813066;29;20412;-74
2021/01/20 09:35:28;;;;;;;0.57;0.32;;;20.30;36.70;;;;;;4807319;29;20133;-74
2021/01/20 09:37:54;;;;;;;2.28;0.52;;;20.30;36.50;;;;;;4830312;29;20105;-74
2021/01/20 09:40:21;;;;;;;0.47;0.25;;;20.30;36.70;;;;;;4809212;29;20113;-75
2021/01/20 09:42:47;;;;;;;2.08;0.40;;;20.30;36.80;;;;;;4841417;29;20411;-75
2021/01/20 09:45:17;;;;;;;0.50;0.43;;;20.30;36.80;;;;;;4806404;29;20037;-75
2021/01/20 09:47:44;;;;;;;1.85;0.50;;;20.30;36.60;;;;;;4830502;29;20048;-76
2021/01/20 09:50:10;;;;;;;0.93;0.50;;;20.30;36.30;;;;;;4810452;29;20042;-75
2021/01/20 09:52:36;;;;;;;1.25;0.45;;;20.20;36.50;;;;;;4778598;29;20043;-77
2021/01/20 09:55:02;;;;;;;1.60;0.77;;;20.20;36.50;;;;;;4809181;29;20477;-78
2021/01/20 09:57:27;;;;;;;1.10;0.70;;;20.20;36.60;;;;;;4824424;29;20411;-77
2021/01/20 09:59:53;;;;;;;0.75;0.32;;;20.20;36.60;;;;;;4826597;29;20114;-76
2021/01/20 10:02:19;;;;;;;1.15;0.30;;;20.20;37.00;;;;;;4827445;29;20550;-76
2021/01/20 10:04:45;;;;;;;1.17;0.40;;;20.20;36.50;;;;;;4816389;29;20411;-76
2021/01/20 10:07:11;;;;;;;1.40;0.60;;;20.20;36.40;;;;;;4820428;29;20109;-76
2021/01/20 10:09:39;;;;;;;0.70;0.30;;;20.20;36.50;;;;;;4807369;29;20086;-75
2021/01/20 10:12:06;;;;;;;1.67;0.35;;;20.20;36.60;;;;;;4810418;29;20054;-75
2021/01/20 10:14:35;;;;;;;1.33;0.35;;;20.20;36.60;;;;;;4832039;29;20090;-76
2021/01/20 10:17:00;;;;;;;2.05;0.47;;;20.30;36.60;;;;;;4823787;29;20641;-76
2021/01/20 10:19:26;;;;;;;0.45;0.38;;;20.30;36.60;;;;;;4819627;29;20105;-76
2021/01/20 10:21:52;;;;;;;0.90;0.60;;;20.30;37.20;;;;;;4833761;29;20033;-76
2021/01/20 10:24:17;;;;;;;2.40;0.40;;;20.30;36.40;;;;;;4811570;29;20046;-76
2021/01/20 10:26:43;;;;;;;2.78;0.50;;;20.30;36.20;;;;;;4800202;29;20081;-78
2021/01/20 10:29:09;;;;;;;3.50;0.65;;;20.30;36.40;;;;;;4814105;29;20047;-77
2021/01/20 10:31:35;;;;;;;1.25;0.50;;;20.30;36.40;;;;;;4801874;29;20112;-79
2021/01/20 10:34:01;;;;;;;0.55;0.38;;;20.40;36.40;;;;;;4811474;29;20053;-78
2021/01/20 10:36:27;;;;;;;0.30;0.30;;;20.40;36.40;;;;;;4799684;29;20470;-78
2021/01/20 10:38:56;;;;;;;2.97;0.30;;;20.50;36.40;;;;;;4814832;29;20052;-78
2021/01/20 10:41:22;;;;;;;0.95;0.73;;;20.60;36.30;;;;;;4816095;29;20079;-78
2021/01/20 10:43:48;;;;;;;3.03;0.50;;;20.70;36.10;;;;;;4785749;29;20077;-79
2021/01/20 10:46:14;;;;;;;0.38;0.32;;;20.70;36.00;;;;;;4793597;29;20076;-78
2021/01/20 10:48:40;;;;;;;0.70;0.50;;;20.80;35.90;;;;;;4811295;29;20049;-73
2021/01/20 10:51:05;;;;;;;1.30;0.85;;;20.80;36.00;;;;;;4821561;29;20027;-74
2021/01/20 10:53:31;;;;;;;1.55;0.50;;;20.80;36.10;;;;;;4810198;29;20051;-73
2021/01/20 10:55:56;;;;;;;0.47;0.45;;;20.80;36.10;;;;;;4814520;29;20541;-73
2021/01/20 10:58:22;;;;;;;1.38;0.63;;;20.90;36.10;;;;;;4811478;29;20109;-73
2021/01/20 11:00:49;;;;;;;1.58;0.52;;;20.80;36.10;;;;;;4818682;29;20421;-73
2021/01/20 11:03:15;;;;;;;0.93;0.70;;;20.90;36.10;;;;;;4814349;29;20026;-72
2021/01/20 11:05:40;;;;;;;1.20;0.63;;;20.90;36.20;;;;;;4802467;29;20024;-73
2021/01/20 11:08:07;;;;;;;0.85;0.43;;;20.90;36.20;;;;;;4809279;29;20038;-73
2021/01/20 11:10:32;;;;;;;0.70;0.50;;;20.90;36.00;;;;;;4825254;29;20015;-74
2021/01/20 11:12:58;;;;;;;9.68;0.68;;;20.90;36.20;;;;;;4827813;29;20063;-74
2021/01/20 11:15:23;;;;;;;1.35;1.00;;;20.90;36.90;;;;;;4829493;29;20041;-74
2021/01/20 11:17:50;;;;;;;0.93;0.50;;;20.90;36.20;;;;;;4826539;29;20066;-81
2021/01/20 11:20:16;;;;;;;0.70;0.60;;;20.90;36.20;;;;;;4838166;29;20034;-79
2021/01/20 11:22:42;;;;;;;0.70;0.45;;;20.90;36.30;;;;;;4791737;29;20523;-81
2021/01/20 11:25:08;;;;;;;3.80;0.52;;;20.90;36.30;;;;;;4809367;29;20041;-81
2021/01/20 11:27:34;;;;;;;0.63;0.50;;;20.90;36.30;;;;;;4820314;29;20039;-80
2021/01/20 11:29:59;;;;;;;1.92;0.57;;;20.90;36.40;;;;;;4798978;29;20039;-74
2021/01/20 11:32:25;;;;;;;0.98;0.70;;;20.90;36.50;;;;;;4836525;29;20038;-73
2021/01/20 11:34:50;;;;;;;0.40;0.40;;;20.90;36.60;;;;;;4815487;29;20035;-74
2021/01/20 11:37:16;;;;;;;0.50;0.38;;;20.90;36.50;;;;;;4816129;29;20034;-74
2021/01/20 11:39:42;;;;;;;5.38;1.05;;;20.90;36.70;;;;;;4837773;29;20495;-74
2021/01/20 11:42:07;;;;;;;1.42;0.50;;;20.90;36.70;;;;;;4815755;29;20094;-74
2021/01/20 11:44:35;;;;;;;3.92;0.50;;;20.90;36.70;;;;;;4840488;29;20034;-74
2021/01/20 11:47:01;;;;;;;1.30;0.68;;;20.90;36.80;;;;;;4825060;29;20040;-74
2021/01/20 11:49:27;;;;;;;0.98;0.63;;;20.90;36.70;;;;;;4839254;29;20057;-74
2021/01/20 11:51:52;;;;;;;3.22;0.50;;;20.90;36.80;;;;;;4817565;29;20111;-74
2021/01/20 11:54:18;;;;;;;0.90;0.70;;;20.90;36.60;;;;;;4830544;29;20110;-73
2021/01/20 11:56:43;;;;;;;1.05;0.70;;;20.90;36.60;;;;;;4825453;29;20110;-74
2021/01/20 11:59:09;;;;;;;0.88;0.70;;;20.90;36.60;;;;;;4841653;29;20132;-74
2021/01/20 12:01:35;;;;;;;1.38;1.00;;;20.80;36.50;;;;;;4802746;29;20038;-74
2021/01/20 12:04:00;;;;;;;1.52;0.90;;;20.80;36.60;;;;;;4794018;29;20038;-74
2021/01/20 12:06:29;;;;;;;0.88;0.43;;;20.80;36.60;;;;;;4832945;29;20057;-73
2021/01/20 12:08:54;;;;;;;2.28;1.00;;;20.80;36.70;;;;;;4801296;29;20537;-74
2021/01/20 12:11:24;;;;;;;2.95;0.80;;;20.80;36.80;;;;;;4816489;29;20054;-73
2021/01/20 12:13:49;;;;;;;2.13;0.60;;;20.80;36.90;;;;;;4815628;29;20083;-74
2021/01/20 12:16:15;;;;;;;1.77;0.70;;;20.80;36.80;;;;;;4823140;29;20404;-74
2021/01/20 12:18:40;;;;;;;3.75;0.65;;;20.80;36.80;;;;;;4830414;29;20039;-73
2021/01/20 12:21:06;;;;;;;1.77;0.60;;;20.70;36.70;;;;;;4829173;29;20031;-73
2021/01/20 12:23:31;;;;;;;0.95;0.68;;;20.70;36.90;;;;;;4826584;29;20053;-74
2021/01/20 12:25:57;;;;;;;3.03;0.93;;;20.70;36.80;;;;;;4829176;29;20037;-74
2021/01/20 12:28:23;;;;;;;0.80;0.50;;;20.70;36.90;;;;;;4815506;29;20122;-73
2021/01/20 12:30:48;;;;;;;1.50;0.88;;;20.70;37.10;;;;;;4836725;29;20062;-73
2021/01/20 12:33:14;;;;;;;1.95;0.65;;;20.70;37.00;;;;;;4799271;29;20049;-74
2021/01/20 12:35:39;;;;;;;0.82;0.43;;;20.70;36.90;;;;;;4811829;29;20064;-73
2021/01/20 12:38:05;;;;;;;1.08;0.63;;;20.70;37.10;;;;;;4822211;29;20271;-73
2021/01/20 12:40:31;;;;;;;3.00;0.50;;;20.70;36.90;;;;;;4824332;29;20069;-74
2021/01/20 12:42:56;;;;;;;0.45;0.40;;;20.70;36.90;;;;;;4797904;29;20046;-74
2021/01/20 12:45:22;;;;;;;3.75;0.80;;;20.70;36.90;;;;;;4814934;29;20137;-74
2021/01/20 12:47:48;;;;;;;1.48;0.65;;;20.70;37.40;;;;;;4833320;29;20422;-73
2021/01/20 12:50:20;;;;;;;1.05;0.70;;;20.70;36.90;;;;;;4797825;29;20034;-73
2021/01/20 12:52:45;;;;;;;1.85;0.70;;;20.70;36.80;;;;;;4832648;29;20030;-73